createdAt,value
2019-05-04T00:02:01.954Z,6.57
2019-05-04T00:04:31.747Z,6.30
2019-05-04T00:06:59.155Z,5.70
2019-05-04T00:09:26.798Z,5.10
2019-05-04T00:11:55.718Z,5.70
2019-05-04T00:14:24.811Z,4.80
2019-05-04T00:16:52.521Z,4.50
2019-05-04T00:19:19.913Z,4.80
2019-05-04T00:21:47.317Z,4.90
2019-05-04T00:24:14.947Z,4.20
2019-05-04T00:26:42.352Z,4.07
2019-05-04T00:29:09.756Z,4.87
2019-05-04T00:31:37.530Z,4.43
2019-05-04T00:34:15.143Z,5.30
2019-05-04T00:37:01.373Z,5.03
2019-05-04T00:39:35.516Z,5.23
2019-05-04T00:42:05.691Z,4.10
2019-05-04T00:44:34.768Z,4.80
2019-05-04T00:47:02.249Z,5.23
2019-05-04T00:49:29.884Z,6.30
2019-05-04T00:51:57.272Z,5.93
2019-05-04T00:54:25.291Z,5.90
2019-05-04T00:56:53.028Z,5.90
2019-05-04T00:59:25.815Z,6.13
2019-05-04T01:02:19.542Z,5.57
2019-05-04T01:04:46.933Z,5.30
2019-05-04T01:07:20.769Z,6.17
2019-05-04T01:09:44.972Z,5.50
2019-05-04T01:12:14.640Z,5.83
2019-05-04T01:14:41.785Z,4.97
2019-05-04T01:17:09.327Z,7.80
2019-05-04T01:19:36.718Z,8.20
2019-05-04T01:22:04.691Z,8.73
2019-05-04T01:24:34.470Z,7.40
2019-05-04T01:27:01.633Z,6.47
2019-05-04T01:29:29.025Z,6.10
2019-05-04T01:31:56.865Z,6.37
2019-05-04T01:34:39.033Z,8.57
2019-05-04T01:37:19.288Z,8.10
2019-05-04T01:39:50.844Z,6.90
2019-05-04T01:42:18.697Z,6.40
2019-05-04T01:44:47.881Z,5.57
2019-05-04T01:47:15.543Z,5.43
2019-05-04T01:49:44.837Z,5.63
2019-05-04T01:52:12.373Z,5.20
2019-05-04T01:54:39.762Z,4.80
2019-05-04T01:57:15.394Z,4.30
2019-05-04T01:59:46.826Z,5.67
2019-05-04T02:02:15.555Z,5.73
2019-05-04T02:04:44.983Z,5.90
2019-05-04T02:07:12.403Z,5.30
2019-05-04T02:09:39.789Z,4.60
2019-05-04T02:12:07.206Z,4.67
2019-05-04T02:14:35.616Z,4.03
2019-05-04T02:17:04.921Z,4.80
2019-05-04T02:19:32.487Z,3.93
2019-05-04T02:22:05.241Z,5.20
2019-05-04T02:24:35.442Z,6.63
2019-05-04T02:27:25.406Z,4.37
2019-05-04T02:30:07.044Z,3.83
2019-05-04T02:32:36.056Z,4.73
2019-05-04T02:35:05.490Z,4.50
2019-05-04T02:37:36.461Z,3.93
2019-05-04T02:40:03.149Z,4.10
2019-05-04T02:42:30.888Z,4.47
2019-05-04T02:44:58.479Z,3.47
2019-05-04T02:47:39.222Z,6.60
2019-05-04T02:50:11.567Z,6.53
2019-05-04T02:52:38.972Z,4.97
2019-05-04T02:55:06.488Z,5.73
2019-05-04T02:57:35.476Z,5.30
2019-05-04T03:00:05.924Z,4.30
2019-05-04T03:02:35.620Z,4.03
2019-05-04T03:05:05.194Z,3.50
2019-05-04T03:07:35.411Z,3.43
2019-05-04T03:10:06.357Z,3.47
2019-05-04T03:12:35.654Z,3.77
2019-05-04T03:15:04.806Z,4.77
2019-05-04T03:17:38.403Z,6.20
2019-05-04T03:20:15.462Z,6.27
2019-05-04T03:22:46.532Z,6.07
2019-05-04T03:25:15.776Z,7.50
2019-05-04T03:27:45.621Z,6.13
2019-05-04T03:30:21.886Z,6.83
2019-05-04T03:32:49.280Z,5.33
2019-05-04T03:35:32.160Z,4.60
2019-05-04T03:37:45.910Z,5.70
2019-05-04T03:40:15.850Z,6.47
2019-05-04T03:42:44.935Z,6.57
2019-05-04T03:45:22.099Z,8.87
2019-05-04T03:47:56.086Z,5.67
2019-05-04T03:50:26.975Z,5.80
2019-05-04T03:52:55.747Z,6.27
2019-05-04T03:55:26.100Z,6.07
2019-05-04T03:57:55.686Z,9.00
2019-05-04T04:00:28.855Z,8.23
2019-05-04T04:02:56.375Z,5.90
2019-05-04T04:05:25.753Z,5.47
2019-05-04T04:07:55.265Z,5.73
2019-05-04T04:10:25.412Z,6.27
2019-05-04T04:12:51.514Z,6.30
2019-05-04T04:15:18.923Z,5.63
2019-05-04T04:17:56.075Z,6.43
2019-05-04T04:20:25.774Z,5.70
2019-05-04T04:22:55.369Z,6.53
2019-05-04T04:25:50.983Z,6.03
2019-05-04T04:28:25.234Z,5.37
2019-05-04T04:30:47.605Z,5.40
2019-05-04T04:33:15.511Z,4.93
2019-05-04T04:35:45.499Z,5.40
2019-05-04T04:38:12.121Z,7.43
2019-05-04T04:40:39.852Z,7.57
2019-05-04T04:43:07.427Z,9.60
2019-05-04T04:45:35.870Z,6.33
2019-05-04T04:48:21.123Z,6.90
2019-05-04T04:50:37.174Z,6.60
2019-05-04T04:53:06.950Z,6.00
2019-05-04T04:55:36.479Z,5.83
2019-05-04T04:58:29.547Z,5.50
2019-05-04T05:01:02.917Z,7.43
2019-05-04T05:03:30.306Z,6.73
2019-05-04T05:05:58.085Z,8.83
2019-05-04T05:08:25.450Z,9.20
2019-05-04T05:10:55.729Z,6.60
2019-05-04T05:13:22.121Z,6.97
2019-05-04T05:15:49.505Z,6.93
2019-05-04T05:18:16.908Z,9.00
2019-05-04T05:20:50.438Z,6.87
2019-05-04T05:23:17.844Z,6.80
2019-05-04T05:25:45.241Z,8.10
2019-05-04T05:28:15.295Z,7.30
2019-05-04T05:31:20.637Z,6.70
2019-05-04T05:34:00.657Z,8.33
2019-05-04T05:36:28.969Z,9.27
2019-05-04T05:38:56.499Z,8.80
2019-05-04T05:41:24.446Z,8.37
2019-05-04T05:43:54.970Z,8.63
2019-05-04T05:46:37.952Z,9.30
2019-05-04T05:49:24.639Z,9.13
2019-05-04T05:52:20.409Z,8.90
2019-05-04T05:55:11.938Z,7.60
2019-05-04T05:57:50.563Z,8.17
2019-05-04T06:00:27.895Z,7.50
2019-05-04T06:03:14.919Z,7.47
2019-05-04T06:05:45.482Z,8.20
2019-05-04T06:08:17.318Z,7.97
2019-05-04T06:10:49.079Z,7.73
2019-05-04T06:13:24.542Z,7.67
2019-05-04T06:16:04.703Z,9.57
2019-05-04T06:18:36.381Z,7.43
2019-05-04T06:21:10.930Z,8.53
2019-05-04T06:23:45.289Z,10.07
2019-05-04T06:26:32.297Z,9.37
2019-05-04T06:29:25.565Z,6.43
2019-05-04T06:31:57.106Z,6.77
2019-05-04T06:34:32.528Z,8.53
2019-05-04T06:37:12.774Z,9.53
2019-05-04T06:39:51.212Z,7.70
2019-05-04T06:42:25.156Z,8.70
2019-05-04T06:45:06.274Z,10.53
2019-05-04T06:47:28.377Z,9.43
2019-05-04T06:49:58.682Z,7.10
2019-05-04T06:52:45.897Z,6.70
2019-05-04T06:55:20.108Z,7.93
2019-05-04T06:58:07.861Z,8.67
2019-05-04T07:01:04.103Z,8.40
2019-05-04T07:03:31.606Z,9.67
2019-05-04T07:05:59.599Z,9.07
2019-05-04T07:08:32.063Z,10.27
2019-05-04T07:11:12.391Z,9.50
2019-05-04T07:13:28.397Z,10.70
2019-05-04T07:15:58.824Z,10.47
2019-05-04T07:18:24.764Z,10.20
2019-05-04T07:20:54.554Z,9.73
2019-05-04T07:23:21.583Z,9.60
2019-05-04T07:25:54.767Z,10.40
2019-05-04T07:28:18.411Z,10.00
2019-05-04T07:30:47.908Z,11.53
2019-05-04T07:33:21.309Z,11.40
2019-05-04T07:36:17.359Z,9.33
2019-05-04T07:39:09.201Z,8.57
2019-05-04T07:41:44.942Z,9.90
2019-05-04T07:44:09.979Z,9.87
2019-05-04T07:46:34.718Z,9.63
2019-05-04T07:49:02.276Z,9.50
2019-05-04T07:51:29.679Z,9.70
2019-05-04T07:53:57.205Z,10.40
2019-05-04T07:56:25.002Z,7.90
2019-05-04T07:58:54.210Z,9.37
2019-05-04T08:01:27.000Z,9.90
2019-05-04T08:03:50.975Z,8.67
2019-05-04T08:06:19.610Z,9.13
2019-05-04T08:08:57.196Z,8.23
2019-05-04T08:11:25.686Z,9.03
2019-05-04T08:13:54.363Z,8.80
2019-05-04T08:16:21.829Z,8.37
2019-05-04T08:18:50.975Z,8.10
2019-05-04T08:21:20.564Z,8.70
2019-05-04T08:23:47.961Z,12.03
2019-05-04T08:26:20.070Z,14.10
2019-05-04T08:28:46.086Z,11.80
2019-05-04T08:31:15.233Z,10.73
2019-05-04T08:33:42.725Z,8.67
2019-05-04T08:36:14.469Z,14.13
2019-05-04T08:38:41.645Z,8.70
2019-05-04T08:41:10.883Z,9.50
2019-05-04T08:43:37.835Z,6.67
2019-05-04T08:46:17.870Z,6.70
2019-05-04T08:48:45.466Z,7.23
2019-05-04T08:51:32.131Z,6.93
2019-05-04T08:53:59.474Z,8.40
2019-05-04T08:56:35.872Z,5.53
2019-05-04T08:59:08.844Z,5.40
2019-05-04T09:04:24.856Z,6.70
2019-05-04T09:05:52.573Z,6.67
2019-05-04T09:06:40.839Z,6.53
2019-05-04T09:09:11.461Z,6.30
2019-05-04T09:11:39.082Z,6.60
2019-05-04T09:14:06.559Z,5.63
2019-05-04T09:16:38.242Z,5.10
2019-05-04T09:19:04.717Z,5.20
2019-05-04T09:21:32.178Z,4.77
2019-05-04T09:24:04.189Z,5.80
2019-05-04T09:26:28.832Z,4.50
2019-05-04T09:28:56.222Z,5.57
2019-05-04T09:31:24.899Z,5.00
2019-05-04T09:33:52.554Z,4.30
2019-05-04T09:36:19.950Z,3.83
2019-05-04T09:38:47.356Z,4.57
2019-05-04T09:41:30.431Z,4.20
2019-05-04T09:44:01.623Z,4.30
2019-05-04T09:46:27.666Z,5.07
2019-05-04T09:48:55.371Z,3.67
2019-05-04T09:51:28.745Z,3.30
2019-05-04T09:53:54.530Z,3.60
2019-05-04T09:56:22.257Z,3.87
2019-05-04T09:58:49.684Z,3.60
2019-05-04T10:01:17.079Z,3.60
2019-05-04T10:03:45.079Z,4.00
2019-05-04T10:06:12.559Z,3.60
2019-05-04T10:08:39.981Z,3.60
2019-05-04T10:11:27.985Z,3.70
2019-05-04T10:14:14.719Z,3.20
2019-05-04T10:17:00.195Z,3.40
2019-05-04T10:19:27.590Z,5.40
2019-05-04T10:21:56.143Z,4.50
2019-05-04T10:24:25.173Z,3.37
2019-05-04T10:27:07.304Z,2.30
2019-05-04T10:29:35.230Z,2.60
2019-05-04T10:32:05.791Z,2.33
2019-05-04T10:34:33.123Z,1.97
2019-05-04T10:37:04.360Z,3.30
2019-05-04T10:39:31.940Z,3.30
2019-05-04T10:41:59.332Z,2.43
2019-05-04T10:44:27.054Z,2.20
2019-05-04T10:46:54.823Z,2.40
2019-05-04T10:49:22.226Z,2.40
2019-05-04T10:51:49.700Z,2.20
2019-05-04T10:54:17.116Z,1.73
2019-05-04T10:56:45.228Z,1.50
2019-05-04T10:59:12.850Z,1.30
2019-05-04T11:01:40.288Z,1.40
2019-05-04T11:04:07.814Z,1.70
2019-05-04T11:06:35.517Z,1.33
2019-05-04T11:09:05.113Z,1.20
2019-05-04T11:11:32.666Z,1.20
2019-05-04T11:14:03.655Z,1.07
2019-05-04T11:16:31.296Z,1.10
2019-05-04T11:18:58.700Z,1.20
2019-05-04T11:21:26.086Z,1.43
2019-05-04T11:23:55.433Z,1.13
2019-05-04T11:26:30.398Z,1.20
2019-05-04T11:28:58.366Z,1.60
2019-05-04T11:31:26.013Z,1.20
2019-05-04T11:33:54.805Z,1.40
2019-05-04T11:36:24.235Z,1.17
2019-05-04T11:38:51.725Z,1.60
2019-05-04T11:41:19.452Z,1.50
2019-05-04T11:43:46.939Z,1.43
2019-05-04T11:46:16.015Z,1.47
2019-05-04T11:48:43.559Z,1.27
2019-05-04T11:51:11.166Z,1.30
2019-05-04T11:53:38.505Z,1.30
2019-05-04T11:56:06.060Z,1.57
2019-05-04T11:58:34.621Z,1.57
2019-05-04T12:01:02.350Z,1.37
2019-05-04T12:03:30.872Z,1.50
2019-05-04T12:06:20.591Z,1.40
2019-05-04T12:09:05.538Z,1.60
2019-05-04T12:11:34.726Z,1.50
2019-05-04T12:14:04.431Z,1.43
2019-05-04T12:16:31.768Z,1.30
2019-05-04T12:18:59.311Z,1.30
2019-05-04T12:21:26.710Z,1.50
2019-05-04T12:23:55.341Z,1.50
2019-05-04T12:26:25.080Z,1.20
2019-05-04T12:28:52.146Z,1.30
2019-05-04T12:31:19.649Z,1.40
2019-05-04T12:33:47.067Z,1.10
2019-05-04T12:36:15.021Z,1.07
2019-05-04T12:38:42.656Z,1.17
2019-05-04T12:41:10.028Z,1.30
2019-05-04T12:43:37.470Z,1.10
2019-05-04T12:46:04.921Z,1.00
2019-05-04T12:48:34.881Z,1.13
2019-05-04T12:51:01.963Z,1.37
2019-05-04T12:53:29.584Z,1.30
2019-05-04T12:55:57.033Z,1.20
2019-05-04T12:58:24.570Z,1.13
2019-05-04T13:00:54.737Z,1.00
2019-05-04T13:03:22.217Z,1.10
2019-05-04T13:05:49.751Z,1.10
2019-05-04T13:08:17.337Z,1.27
2019-05-04T13:10:46.617Z,1.20
2019-05-04T13:13:15.265Z,0.90
2019-05-04T13:15:43.993Z,1.50
2019-05-04T13:18:20.201Z,1.90
2019-05-04T13:20:47.645Z,1.20
2019-05-04T13:23:15.276Z,1.07
2019-05-04T13:25:44.973Z,2.37
2019-05-04T13:28:14.195Z,2.30
2019-05-04T13:30:41.350Z,2.30
2019-05-04T13:33:08.754Z,2.83
2019-05-04T13:35:36.412Z,3.03
2019-05-04T13:38:05.083Z,3.70
2019-05-04T13:40:32.590Z,3.00
2019-05-04T13:43:00.088Z,6.17
2019-05-04T13:45:28.143Z,3.60
2019-05-04T13:47:55.558Z,3.37
2019-05-04T13:50:25.006Z,3.10
2019-05-04T13:52:52.216Z,4.40
2019-05-04T13:55:39.127Z,3.60
2019-05-04T13:58:16.228Z,3.93
2019-05-04T14:01:04.870Z,4.20
2019-05-04T14:03:38.663Z,3.00
2019-05-04T14:06:06.060Z,2.50
2019-05-04T14:08:33.466Z,2.80
2019-05-04T14:11:13.968Z,3.40
2019-05-04T14:13:30.130Z,4.40
2019-05-04T14:15:57.560Z,4.07
2019-05-04T14:18:26.924Z,3.60
2019-05-04T14:20:55.036Z,3.10
2019-05-04T14:23:22.505Z,2.20
2019-05-04T14:25:49.978Z,2.30
2019-05-04T14:28:17.382Z,2.03
2019-05-04T14:30:45.440Z,2.27
2019-05-04T14:33:14.531Z,2.00
2019-05-04T14:35:42.157Z,1.90
2019-05-04T14:38:09.554Z,2.07
2019-05-04T14:40:37.138Z,2.50
2019-05-04T14:43:07.337Z,2.00
2019-05-04T14:45:54.358Z,1.97
2019-05-04T14:48:47.088Z,2.07
2019-05-04T14:51:16.202Z,2.80
2019-05-04T14:53:46.206Z,2.37
2019-05-04T14:56:15.120Z,2.60
2019-05-04T14:58:42.257Z,2.70
2019-05-04T15:01:09.674Z,3.43
2019-05-04T15:03:37.110Z,2.80
2019-05-04T15:06:04.877Z,2.63
2019-05-04T15:08:32.273Z,2.60
2019-05-04T15:10:59.814Z,2.77
2019-05-04T15:13:27.372Z,3.60
2019-05-04T15:15:55.170Z,3.83
2019-05-04T15:18:26.561Z,3.97
2019-05-04T15:20:56.911Z,4.90
2019-05-04T15:23:24.719Z,3.60
2019-05-04T15:25:52.223Z,4.00
2019-05-04T15:28:19.697Z,3.40
2019-05-04T15:30:47.105Z,7.07
2019-05-04T15:33:14.882Z,6.80
2019-05-04T15:35:42.601Z,7.57
2019-05-04T15:38:10.009Z,7.47
2019-05-04T15:40:37.420Z,9.03
2019-05-04T15:43:04.854Z,8.20
2019-05-04T15:45:34.913Z,9.07
2019-05-04T15:48:05.160Z,9.23
2019-05-04T15:50:36.343Z,8.67
2019-05-04T15:53:20.855Z,7.15
2019-05-04T15:55:55.670Z,6.20
2019-05-04T15:58:30.430Z,5.60
2019-05-04T16:00:58.167Z,5.47
2019-05-04T16:03:25.571Z,5.97
2019-05-04T16:05:54.910Z,5.23
2019-05-04T16:08:22.201Z,5.20
2019-05-04T16:10:49.608Z,5.20
2019-05-04T16:13:16.996Z,5.90
2019-05-04T16:15:45.561Z,6.70
2019-05-04T16:18:14.903Z,6.23
2019-05-04T16:20:44.164Z,6.40
2019-05-04T16:23:11.649Z,5.83
2019-05-04T16:25:39.130Z,7.63
2019-05-04T16:28:06.540Z,6.90
2019-05-04T16:30:34.738Z,6.30
2019-05-04T16:33:04.265Z,7.00
2019-05-04T16:35:31.455Z,8.60
2019-05-04T16:37:59.108Z,7.40
2019-05-04T16:40:26.966Z,7.20
2019-05-04T16:42:55.470Z,7.83
2019-05-04T16:45:25.894Z,11.00
2019-05-04T16:47:54.477Z,9.10
2019-05-04T16:50:30.120Z,10.23
2019-05-04T16:53:04.652Z,9.00
2019-05-04T16:55:32.556Z,7.20
2019-05-04T16:57:59.982Z,7.17
2019-05-04T17:00:50.076Z,7.00
2019-05-04T17:03:21.903Z,5.63
2019-05-04T17:05:49.508Z,6.07
2019-05-04T17:08:17.167Z,4.80
2019-05-04T17:10:45.223Z,5.20
2019-05-04T17:13:14.746Z,4.37
2019-05-04T17:15:44.042Z,4.33
2019-05-04T17:18:11.956Z,4.80
2019-05-04T17:20:44.188Z,3.80
2019-05-04T17:23:11.943Z,5.17
2019-05-04T17:25:49.951Z,4.43
2019-05-04T17:28:22.624Z,4.43
2019-05-04T17:30:56.359Z,4.00
2019-05-04T17:33:24.889Z,3.23
2019-05-04T17:35:52.721Z,4.77
2019-05-04T17:38:21.947Z,5.13
2019-05-04T17:40:56.992Z,4.27
2019-05-04T17:43:39.845Z,5.40
2019-05-04T17:46:07.641Z,6.57
2019-05-04T17:48:35.463Z,5.07
2019-05-04T17:51:11.925Z,4.77
2019-05-04T17:53:44.556Z,4.30
2019-05-04T17:56:11.788Z,3.70
2019-05-04T17:58:39.228Z,4.70
2019-05-04T18:01:21.342Z,3.70
2019-05-04T18:03:49.189Z,2.60
2019-05-04T18:06:16.588Z,2.40
2019-05-04T18:08:44.809Z,2.10
2019-05-04T18:11:39.620Z,2.10
2019-05-04T18:14:29.077Z,1.63
2019-05-04T18:16:59.489Z,1.93
2019-05-04T18:19:26.879Z,1.80
2019-05-04T18:21:56.268Z,1.70
2019-05-04T18:24:24.255Z,1.77
2019-05-04T18:26:51.896Z,1.70
2019-05-04T18:29:19.273Z,2.10
2019-05-04T18:31:46.753Z,2.10
2019-05-04T18:34:15.367Z,2.10
2019-05-04T18:36:44.423Z,2.27
2019-05-04T18:39:12.158Z,2.40
2019-05-04T18:41:41.535Z,3.47
2019-05-04T18:44:14.939Z,3.10
2019-05-04T18:47:04.727Z,3.27
2019-05-04T18:49:34.317Z,3.30
2019-05-04T18:52:01.695Z,3.80
2019-05-04T18:54:29.137Z,3.77
2019-05-04T18:56:56.616Z,3.80
2019-05-04T18:59:24.013Z,4.07
2019-05-04T19:01:51.458Z,3.60
2019-05-04T19:04:18.914Z,4.30
2019-05-04T19:07:05.420Z,3.10
2019-05-04T19:09:38.355Z,3.83
2019-05-04T19:12:05.966Z,2.40
2019-05-04T19:14:34.927Z,2.20
2019-05-04T19:17:08.488Z,2.30
2019-05-04T19:19:31.694Z,1.87
2019-05-04T19:21:59.108Z,2.30
2019-05-04T19:24:34.228Z,2.13
2019-05-04T19:27:01.772Z,2.40
2019-05-04T19:29:29.264Z,2.60
2019-05-04T19:31:56.673Z,2.37
2019-05-04T19:34:24.777Z,2.20
2019-05-04T19:36:52.327Z,2.00
2019-05-04T19:39:19.735Z,2.40
2019-05-04T19:41:58.049Z,1.97
2019-05-04T19:44:31.811Z,2.60
2019-05-04T19:47:19.035Z,2.00
2019-05-04T19:49:36.241Z,1.70
2019-05-04T19:52:04.958Z,1.80
2019-05-04T19:54:35.004Z,1.97
2019-05-04T19:57:02.557Z,1.97
2019-05-04T19:59:30.101Z,1.83
2019-05-04T20:02:00.119Z,1.50
2019-05-04T20:04:27.524Z,1.53
2019-05-04T20:07:07.844Z,1.80
2019-05-04T20:10:04.547Z,1.73
2019-05-04T20:12:44.900Z,2.20
2019-05-04T20:15:22.032Z,2.43
2019-05-04T20:17:44.638Z,2.20
2019-05-04T20:20:14.825Z,2.70
2019-05-04T20:22:41.801Z,3.17
2019-05-04T20:25:14.654Z,3.70
2019-05-04T20:27:42.276Z,4.47
2019-05-04T20:30:10.911Z,4.43
2019-05-04T20:32:38.395Z,4.83
2019-05-04T20:35:06.140Z,5.97
2019-05-04T20:37:34.385Z,6.20
2019-05-04T20:40:01.958Z,8.00
2019-05-04T20:42:29.624Z,6.50
2019-05-04T20:45:04.298Z,6.37
2019-05-04T20:48:05.197Z,6.27
2019-05-04T20:50:35.081Z,5.83
2019-05-04T20:53:08.574Z,7.10
2019-05-04T20:55:36.013Z,7.37
2019-05-04T20:58:04.571Z,8.50
2019-05-04T21:00:32.408Z,8.63
2019-05-04T21:03:04.435Z,8.20
2019-05-04T21:05:56.742Z,9.53
2019-05-04T21:08:23.441Z,10.50
2019-05-04T21:10:50.849Z,8.50
2019-05-04T21:13:18.310Z,10.03
2019-05-04T21:15:45.986Z,8.67
2019-05-04T21:18:29.633Z,9.20
2019-05-04T21:21:15.167Z,9.20
2019-05-04T21:23:44.802Z,11.20
2019-05-04T21:26:12.234Z,11.50
2019-05-04T21:28:39.650Z,11.33
2019-05-04T21:31:07.179Z,10.23
2019-05-04T21:33:35.537Z,11.13
2019-05-04T21:36:04.353Z,9.80
2019-05-04T21:38:34.158Z,9.43
2019-05-04T21:41:01.495Z,8.43
2019-05-04T21:43:30.710Z,8.57
2019-05-04T21:46:18.327Z,7.47
2019-05-04T21:49:05.564Z,6.10
2019-05-04T21:51:34.618Z,6.60
2019-05-04T21:54:02.090Z,5.70
2019-05-04T21:56:29.524Z,4.80
2019-05-04T21:58:56.923Z,5.10
2019-05-04T22:01:35.065Z,5.00
2019-05-04T22:04:11.807Z,4.70
2019-05-04T22:06:39.283Z,4.90
2019-05-04T22:09:07.139Z,4.97
2019-05-04T22:11:34.735Z,4.87
2019-05-04T22:14:02.291Z,3.83
2019-05-04T22:16:29.694Z,3.63
2019-05-04T22:18:57.106Z,4.07
2019-05-04T22:21:25.281Z,3.70
2019-05-04T22:23:52.880Z,4.67
2019-05-04T22:26:20.270Z,3.70
2019-05-04T22:28:48.055Z,4.40
2019-05-04T22:31:15.449Z,4.13
2019-05-04T22:33:43.675Z,3.97
2019-05-04T22:36:24.179Z,4.10
2019-05-04T22:38:51.702Z,4.67
2019-05-04T22:41:19.096Z,4.43
2019-05-04T22:43:46.533Z,4.50
2019-05-04T22:46:14.862Z,4.63
2019-05-04T22:48:47.316Z,5.07
2019-05-04T22:51:12.265Z,5.73
2019-05-04T22:53:45.004Z,4.53
2019-05-04T22:56:16.444Z,4.83
2019-05-04T22:58:54.762Z,5.30
2019-05-04T23:01:56.872Z,5.20
2019-05-04T23:04:27.343Z,5.83
2019-05-04T23:06:54.736Z,5.80
2019-05-04T23:09:22.143Z,6.10
2019-05-04T23:11:49.588Z,6.00
2019-05-04T23:14:16.980Z,5.03
2019-05-04T23:16:45.113Z,5.83
2019-05-04T23:19:14.743Z,5.53
2019-05-04T23:21:41.823Z,5.73
2019-05-04T23:24:09.229Z,6.13
2019-05-04T23:26:36.711Z,4.67
2019-05-04T23:29:06.207Z,5.97
2019-05-04T23:31:34.808Z,5.30
2019-05-04T23:34:04.779Z,5.70
2019-05-04T23:36:32.176Z,6.00
2019-05-04T23:38:59.558Z,5.40
2019-05-04T23:41:27.140Z,5.20
2019-05-04T23:43:55.138Z,5.07
2019-05-04T23:46:25.020Z,5.47
2019-05-04T23:48:54.338Z,5.03
2019-05-04T23:51:21.976Z,5.37
2019-05-04T23:53:49.379Z,5.70
2019-05-04T23:56:16.804Z,5.10
2019-05-04T23:59:09.588Z,5.60
